createdAt,value
2019-05-30T00:00:34.681Z,3.90
2019-05-30T00:03:04.371Z,3.70
2019-05-30T00:05:34.388Z,4.10
2019-05-30T00:08:04.412Z,3.70
2019-05-30T00:10:34.480Z,4.00
2019-05-30T00:13:05.036Z,3.80
2019-05-30T00:15:35.018Z,3.70
2019-05-30T00:18:05.055Z,4.03
2019-05-30T00:20:34.391Z,3.80
2019-05-30T00:23:03.780Z,4.13
2019-05-30T00:25:33.134Z,3.43
2019-05-30T00:28:04.930Z,3.73
2019-05-30T00:30:33.477Z,4.03
2019-05-30T00:33:03.594Z,3.60
2019-05-30T00:35:33.841Z,3.70
2019-05-30T00:38:03.891Z,3.67
2019-05-30T00:40:33.808Z,3.83
2019-05-30T00:43:04.235Z,3.27
2019-05-30T00:45:34.173Z,3.80
2019-05-30T00:48:04.433Z,3.17
2019-05-30T00:50:34.425Z,3.70
2019-05-30T00:53:05.240Z,3.43
2019-05-30T00:55:34.762Z,3.77
2019-05-30T00:58:04.803Z,3.33
2019-05-30T01:00:43.219Z,3.33
2019-05-30T01:03:08.570Z,3.60
2019-05-30T01:05:37.042Z,3.37
2019-05-30T01:08:07.233Z,3.30
2019-05-30T01:10:37.273Z,3.00
2019-05-30T01:13:07.353Z,3.40
2019-05-30T01:15:37.295Z,3.50
2019-05-30T01:18:07.377Z,3.30
2019-05-30T01:20:37.297Z,3.30
2019-05-30T01:23:07.470Z,3.37
2019-05-30T01:25:36.851Z,3.20
2019-05-30T01:28:06.198Z,3.37
2019-05-30T01:30:35.477Z,3.40
2019-05-30T01:33:05.870Z,2.93
2019-05-30T01:35:35.802Z,3.20
2019-05-30T01:38:06.079Z,3.23
2019-05-30T01:40:36.067Z,3.30
2019-05-30T01:43:06.192Z,3.07
2019-05-30T01:45:36.089Z,3.33
2019-05-30T01:48:06.487Z,3.33
2019-05-30T01:50:36.433Z,2.93
2019-05-30T01:53:06.692Z,3.10
2019-05-30T01:55:36.679Z,3.10
2019-05-30T01:58:07.253Z,3.30
2019-05-30T02:00:41.235Z,3.33
2019-05-30T02:03:10.585Z,3.30
2019-05-30T02:05:39.921Z,3.00
2019-05-30T02:08:10.116Z,2.70
2019-05-30T02:10:40.457Z,3.80
2019-05-30T02:13:10.052Z,3.30
2019-05-30T02:15:40.049Z,3.17
2019-05-30T02:18:09.969Z,3.00
2019-05-30T02:20:39.817Z,2.97
2019-05-30T02:23:09.951Z,3.60
2019-05-30T02:25:40.159Z,2.87
2019-05-30T02:28:10.363Z,3.30
2019-05-30T02:30:39.836Z,2.80
2019-05-30T02:33:10.494Z,3.00
2019-05-30T02:35:40.598Z,2.90
2019-05-30T02:38:11.753Z,2.90
2019-05-30T02:40:41.005Z,3.10
2019-05-30T02:43:12.161Z,2.97
2019-05-30T02:45:42.026Z,2.90
2019-05-30T02:48:12.223Z,3.20
2019-05-30T02:50:42.706Z,3.20
2019-05-30T02:53:12.994Z,3.07
2019-05-30T02:55:43.924Z,2.67
2019-05-30T02:58:13.364Z,3.00
2019-05-30T03:00:43.291Z,3.03
2019-05-30T03:03:14.592Z,2.77
2019-05-30T03:05:43.768Z,2.80
2019-05-30T03:08:14.378Z,3.00
2019-05-30T03:10:44.135Z,3.07
2019-05-30T03:13:13.931Z,3.30
2019-05-30T03:15:43.749Z,3.63
2019-05-30T03:18:15.133Z,3.53
2019-05-30T03:20:45.700Z,3.40
2019-05-30T03:23:15.479Z,3.27
2019-05-30T03:25:44.838Z,3.50
2019-05-30T03:28:14.223Z,3.23
2019-05-30T03:30:45.698Z,3.07
2019-05-30T03:33:32.442Z,3.30
2019-05-30T03:35:46.945Z,3.27
2019-05-30T03:38:16.909Z,3.27
2019-05-30T03:40:46.655Z,3.47
2019-05-30T03:43:16.345Z,3.30
2019-05-30T03:45:46.263Z,3.37
2019-05-30T03:48:18.776Z,3.07
2019-05-30T03:50:51.627Z,3.30
2019-05-30T03:53:21.820Z,3.10
2019-05-30T03:55:55.599Z,3.43
2019-05-30T03:58:44.517Z,2.70
2019-05-30T04:01:18.637Z,2.93
2019-05-30T04:04:01.092Z,3.10
2019-05-30T04:06:34.033Z,3.10
2019-05-30T04:09:09.619Z,3.13
2019-05-30T04:11:43.884Z,3.07
2019-05-30T04:14:19.201Z,3.20
2019-05-30T04:16:48.393Z,2.80
2019-05-30T04:19:19.933Z,3.20
2019-05-30T04:21:48.777Z,3.30
2019-05-30T04:24:19.588Z,2.93
2019-05-30T04:26:49.930Z,3.30
2019-05-30T04:29:19.269Z,3.17
2019-05-30T04:31:48.674Z,3.13
2019-05-30T04:34:19.562Z,3.70
2019-05-30T04:36:53.157Z,3.27
2019-05-30T04:39:21.122Z,3.00
2019-05-30T04:41:50.494Z,3.30
2019-05-30T04:44:20.324Z,3.17
2019-05-30T04:46:50.444Z,3.20
2019-05-30T04:49:21.639Z,3.27
2019-05-30T04:51:50.867Z,3.10
2019-05-30T04:54:21.399Z,3.00
2019-05-30T04:56:51.200Z,3.03
2019-05-30T04:59:21.987Z,3.27
2019-05-30T05:01:51.815Z,3.50
2019-05-30T05:04:21.916Z,3.63
2019-05-30T05:06:51.975Z,3.10
2019-05-30T05:09:22.412Z,3.10
2019-05-30T05:11:52.373Z,3.50
2019-05-30T05:14:22.709Z,2.97
2019-05-30T05:16:52.770Z,3.23
2019-05-30T05:19:25.460Z,3.37
2019-05-30T05:21:53.234Z,3.23
2019-05-30T05:24:23.646Z,3.23
2019-05-30T05:26:53.694Z,3.40
2019-05-30T05:29:24.095Z,3.47
2019-05-30T05:31:54.097Z,3.77
2019-05-30T05:34:23.413Z,3.23
2019-05-30T05:36:53.168Z,3.00
2019-05-30T05:39:22.729Z,3.60
2019-05-30T05:41:52.407Z,3.57
2019-05-30T05:44:22.465Z,3.33
2019-05-30T05:46:52.494Z,3.40
2019-05-30T05:49:22.625Z,3.67
2019-05-30T05:51:52.752Z,3.63
2019-05-30T05:54:22.973Z,3.27
2019-05-30T05:56:53.494Z,3.50
2019-05-30T05:59:23.103Z,3.70
2019-05-30T06:01:53.080Z,3.30
2019-05-30T06:04:23.284Z,3.40
2019-05-30T06:06:53.341Z,3.60
2019-05-30T06:09:22.774Z,3.03
2019-05-30T06:11:52.695Z,3.40
2019-05-30T06:14:22.042Z,3.63
2019-05-30T06:16:51.337Z,3.40
2019-05-30T06:19:21.248Z,3.47
2019-05-30T06:21:54.392Z,3.27
2019-05-30T06:24:22.245Z,3.77
2019-05-30T06:26:51.606Z,3.17
2019-05-30T06:29:22.041Z,3.87
2019-05-30T06:31:52.237Z,4.90
2019-05-30T06:34:32.719Z,8.40
2019-05-30T06:36:52.625Z,4.00
2019-05-30T06:39:21.973Z,3.40
2019-05-30T06:41:51.337Z,3.87
2019-05-30T06:44:21.792Z,5.63
2019-05-30T06:46:51.846Z,3.60
2019-05-30T06:49:22.496Z,3.50
2019-05-30T06:51:52.279Z,2.53
2019-05-30T06:54:22.069Z,2.87
2019-05-30T06:56:52.679Z,2.80
2019-05-30T06:59:21.965Z,2.43
2019-05-30T07:01:52.427Z,2.83
2019-05-30T07:04:23.224Z,2.80
2019-05-30T07:06:53.237Z,2.83
2019-05-30T07:09:23.241Z,2.83
2019-05-30T07:11:52.669Z,2.70
2019-05-30T07:14:23.061Z,2.80
2019-05-30T07:16:52.946Z,2.57
2019-05-30T07:19:23.229Z,3.37
2019-05-30T07:21:54.345Z,2.80
2019-05-30T07:24:23.841Z,3.40
2019-05-30T07:26:53.229Z,2.97
2019-05-30T07:29:23.869Z,3.60
2019-05-30T07:31:54.762Z,3.13
2019-05-30T07:34:24.267Z,3.03
2019-05-30T07:36:53.646Z,3.10
2019-05-30T07:39:26.221Z,3.43
2019-05-30T07:42:05.768Z,3.10
2019-05-30T07:44:26.665Z,3.20
2019-05-30T07:46:56.525Z,2.67
2019-05-30T07:49:26.244Z,2.60
2019-05-30T07:51:56.401Z,2.50
2019-05-30T07:54:26.843Z,3.10
2019-05-30T07:56:56.809Z,2.70
2019-05-30T07:59:26.406Z,2.73
2019-05-30T08:01:56.341Z,2.63
2019-05-30T08:04:25.787Z,3.07
2019-05-30T08:06:55.149Z,2.50
2019-05-30T08:09:24.977Z,2.67
2019-05-30T08:11:55.416Z,2.60
2019-05-30T08:14:24.843Z,2.53
2019-05-30T08:16:54.225Z,2.60
2019-05-30T08:19:23.662Z,2.70
2019-05-30T08:21:53.015Z,2.70
2019-05-30T08:24:22.395Z,2.70
2019-05-30T08:26:51.740Z,2.20
2019-05-30T08:29:21.090Z,2.27
2019-05-30T08:31:50.449Z,2.57
2019-05-30T08:34:19.861Z,2.73
2019-05-30T08:36:49.255Z,2.93
2019-05-30T08:39:19.626Z,3.37
2019-05-30T08:41:48.933Z,2.50
2019-05-30T08:44:18.289Z,3.30
2019-05-30T08:46:47.701Z,2.87
2019-05-30T08:49:17.032Z,3.00
2019-05-30T08:51:46.359Z,3.30
2019-05-30T08:54:15.710Z,3.30
2019-05-30T08:56:45.005Z,2.97
2019-05-30T08:59:14.410Z,3.00
2019-05-30T09:01:43.953Z,2.57
2019-05-30T09:04:13.935Z,2.40
2019-05-30T09:06:44.179Z,2.60
2019-05-30T09:09:14.059Z,2.77
2019-05-30T09:11:44.416Z,2.80
2019-05-30T09:14:14.498Z,2.80
2019-05-30T09:16:44.690Z,2.83
2019-05-30T09:19:14.822Z,2.67
2019-05-30T09:21:45.418Z,2.93
2019-05-30T09:24:15.302Z,2.47
2019-05-30T09:26:48.307Z,2.60
2019-05-30T09:29:15.781Z,2.43
2019-05-30T09:31:45.126Z,2.20
2019-05-30T09:34:14.505Z,2.70
2019-05-30T09:36:44.736Z,2.53
2019-05-30T09:39:14.941Z,2.20
2019-05-30T09:41:45.610Z,1.90
2019-05-30T09:44:15.281Z,2.20
2019-05-30T09:46:44.566Z,2.00
2019-05-30T09:49:13.917Z,2.13
2019-05-30T09:51:44.122Z,2.27
2019-05-30T09:54:14.361Z,2.03
2019-05-30T09:56:44.897Z,2.30
2019-05-30T09:59:14.887Z,1.80
2019-05-30T10:01:44.385Z,2.10
2019-05-30T10:04:14.289Z,2.10
2019-05-30T10:06:44.619Z,2.00
2019-05-30T10:09:14.500Z,2.10
2019-05-30T10:11:44.439Z,2.30
2019-05-30T10:14:14.857Z,2.50
2019-05-30T10:16:49.948Z,2.20
2019-05-30T10:19:15.206Z,2.20
2019-05-30T10:21:45.528Z,2.30
2019-05-30T10:24:15.550Z,2.37
2019-05-30T10:26:46.098Z,2.13
2019-05-30T10:29:15.924Z,2.40
2019-05-30T10:31:46.389Z,1.80
2019-05-30T10:34:16.217Z,2.03
2019-05-30T10:36:47.223Z,2.57
2019-05-30T10:39:16.575Z,2.37
2019-05-30T10:41:46.280Z,2.20
2019-05-30T10:44:16.997Z,2.30
2019-05-30T10:46:48.611Z,2.73
2019-05-30T10:49:31.508Z,4.00
2019-05-30T10:51:49.483Z,5.10
2019-05-30T10:54:18.964Z,2.40
2019-05-30T10:56:49.541Z,2.50
2019-05-30T10:59:19.487Z,2.40
2019-05-30T11:01:50.340Z,2.40
2019-05-30T11:04:20.325Z,2.50
2019-05-30T11:07:23.078Z,2.63
2019-05-30T11:09:58.166Z,2.80
2019-05-30T11:12:27.619Z,2.03
2019-05-30T11:14:57.835Z,2.30
2019-05-30T11:17:27.865Z,1.80
2019-05-30T11:19:57.992Z,1.73
2019-05-30T11:22:28.071Z,3.57
2019-05-30T11:24:59.292Z,2.50
2019-05-30T11:27:28.598Z,2.40
2019-05-30T11:29:59.008Z,2.30
2019-05-30T11:32:28.943Z,2.37
2019-05-30T11:34:59.556Z,2.47
2019-05-30T11:37:29.601Z,2.07
2019-05-30T11:39:59.490Z,2.17
2019-05-30T11:42:29.564Z,2.20
2019-05-30T11:44:59.967Z,1.70
2019-05-30T11:47:29.889Z,2.10
2019-05-30T11:50:00.334Z,1.83
2019-05-30T11:52:30.314Z,2.00
2019-05-30T11:55:00.332Z,2.10
2019-05-30T11:57:30.401Z,2.43
2019-05-30T12:00:00.520Z,2.13
2019-05-30T12:02:30.461Z,1.97
2019-05-30T12:05:00.829Z,1.80
2019-05-30T12:07:36.237Z,1.70
2019-05-30T12:10:01.889Z,1.87
2019-05-30T12:12:31.285Z,1.83
2019-05-30T12:15:01.606Z,2.10
2019-05-30T12:17:31.801Z,2.10
2019-05-30T12:20:01.926Z,2.10
2019-05-30T12:22:31.942Z,2.20
2019-05-30T12:25:02.578Z,1.90
2019-05-30T12:27:32.315Z,1.70
2019-05-30T12:30:02.668Z,2.00
2019-05-30T12:32:32.644Z,2.03
2019-05-30T12:35:02.799Z,1.97
2019-05-30T12:37:32.877Z,2.03
2019-05-30T12:40:03.188Z,2.87
2019-05-30T12:42:33.161Z,2.80
2019-05-30T12:45:05.442Z,2.17
2019-05-30T12:47:33.558Z,2.37
2019-05-30T12:50:03.575Z,2.80
2019-05-30T12:52:33.469Z,2.23
2019-05-30T12:55:03.200Z,2.00
2019-05-30T12:57:33.179Z,2.03
2019-05-30T13:00:07.376Z,1.87
2019-05-30T13:02:33.801Z,2.00
2019-05-30T13:05:03.164Z,1.83
2019-05-30T13:07:33.200Z,2.17
2019-05-30T13:10:03.455Z,2.33
2019-05-30T13:12:33.429Z,2.50
2019-05-30T13:15:03.859Z,2.73
2019-05-30T13:17:33.915Z,2.50
2019-05-30T13:20:03.482Z,2.60
2019-05-30T13:22:33.453Z,2.00
2019-05-30T13:25:03.817Z,2.50
2019-05-30T13:27:33.857Z,2.27
2019-05-30T13:30:04.187Z,2.53
2019-05-30T13:32:35.129Z,2.30
2019-05-30T13:35:05.420Z,2.37
2019-05-30T13:37:34.853Z,2.47
2019-05-30T13:40:06.637Z,2.23
2019-05-30T13:42:35.575Z,2.13
2019-05-30T13:45:06.098Z,2.10
2019-05-30T13:47:38.403Z,2.07
2019-05-30T13:50:12.712Z,2.00
2019-05-30T13:52:51.030Z,1.90
2019-05-30T13:55:21.147Z,2.30
2019-05-30T13:57:50.470Z,3.33
2019-05-30T14:00:20.513Z,2.90
2019-05-30T14:02:49.873Z,2.30
2019-05-30T14:05:20.125Z,2.23
2019-05-30T14:07:50.444Z,1.87
2019-05-30T14:10:20.289Z,2.20
2019-05-30T14:12:49.658Z,2.30
2019-05-30T14:15:19.981Z,2.20
2019-05-30T14:17:49.313Z,2.47
2019-05-30T14:20:19.658Z,2.33
2019-05-30T14:22:48.950Z,2.27
2019-05-30T14:25:18.768Z,2.30
2019-05-30T14:27:48.067Z,2.20
2019-05-30T14:30:17.777Z,2.17
2019-05-30T14:32:51.156Z,2.30
2019-05-30T14:35:21.452Z,2.23
2019-05-30T14:37:50.995Z,2.10
2019-05-30T14:40:20.851Z,2.00
2019-05-30T14:42:50.172Z,2.00
2019-05-30T14:45:20.689Z,2.30
2019-05-30T14:47:49.972Z,2.50
2019-05-30T14:50:19.760Z,1.90
2019-05-30T14:52:49.597Z,2.20
2019-05-30T14:55:19.386Z,2.20
2019-05-30T14:57:48.717Z,3.97
2019-05-30T15:00:19.117Z,2.00
2019-05-30T15:02:49.054Z,1.93
2019-05-30T15:05:18.394Z,1.83
2019-05-30T15:07:47.761Z,1.83
2019-05-30T15:10:17.645Z,1.70
2019-05-30T15:12:47.148Z,2.00
2019-05-30T15:15:18.754Z,2.13
2019-05-30T15:17:48.341Z,1.90
2019-05-30T15:20:18.727Z,2.20
2019-05-30T15:22:48.124Z,2.30
2019-05-30T15:25:18.306Z,1.83
2019-05-30T15:27:48.248Z,2.10
2019-05-30T15:30:19.401Z,2.27
2019-05-30T15:32:48.688Z,2.00
2019-05-30T15:35:19.157Z,2.13
2019-05-30T15:37:50.406Z,2.07
2019-05-30T15:40:20.257Z,2.20
2019-05-30T15:42:53.049Z,1.90
2019-05-30T15:45:21.152Z,2.00
2019-05-30T15:47:50.511Z,1.87
2019-05-30T15:50:19.857Z,1.93
2019-05-30T15:52:49.255Z,1.90
2019-05-30T15:55:19.312Z,3.03
2019-05-30T15:57:50.170Z,2.10
2019-05-30T16:00:20.663Z,1.87
2019-05-30T16:02:50.140Z,2.20
2019-05-30T16:05:20.584Z,2.70
2019-05-30T16:07:50.020Z,3.00
2019-05-30T16:10:21.111Z,2.87
2019-05-30T16:12:50.465Z,2.60
2019-05-30T16:15:20.218Z,2.50
2019-05-30T16:17:49.680Z,3.20
2019-05-30T16:20:19.979Z,3.30
2019-05-30T16:22:49.981Z,3.50
2019-05-30T16:25:19.874Z,2.67
2019-05-30T16:27:49.220Z,3.10
2019-05-30T16:30:23.523Z,3.43
2019-05-30T16:32:50.385Z,2.90
2019-05-30T16:35:20.226Z,2.77
2019-05-30T16:37:50.289Z,3.30
2019-05-30T16:40:20.377Z,3.33
2019-05-30T16:42:50.249Z,3.43
2019-05-30T16:45:23.686Z,3.80
2019-05-30T16:47:50.707Z,3.17
2019-05-30T16:50:23.335Z,3.57
2019-05-30T16:52:52.742Z,3.27
2019-05-30T16:55:23.454Z,3.67
2019-05-30T16:57:53.427Z,3.50
2019-05-30T17:00:23.468Z,3.57
2019-05-30T17:02:52.827Z,3.63
2019-05-30T17:05:22.228Z,3.33
2019-05-30T17:07:51.605Z,3.70
2019-05-30T17:10:26.641Z,3.50
2019-05-30T17:12:51.971Z,3.47
2019-05-30T17:15:22.054Z,3.93
2019-05-30T17:17:52.061Z,3.80
2019-05-30T17:20:22.481Z,4.30
2019-05-30T17:22:52.480Z,3.43
2019-05-30T17:25:23.027Z,3.70
2019-05-30T17:27:53.052Z,4.10
2019-05-30T17:30:23.746Z,3.50
2019-05-30T17:32:53.225Z,4.20
2019-05-30T17:35:22.568Z,4.23
2019-05-30T17:37:51.882Z,4.37
2019-05-30T17:40:35.613Z,3.90
2019-05-30T17:42:52.800Z,3.93
2019-05-30T17:45:23.165Z,4.00
2019-05-30T17:48:02.659Z,3.60
2019-05-30T17:50:26.218Z,3.50
2019-05-30T17:52:55.585Z,3.63
2019-05-30T17:55:25.928Z,3.70
2019-05-30T17:57:55.979Z,3.50
2019-05-30T18:00:26.457Z,3.73
2019-05-30T18:03:03.706Z,3.30
2019-05-30T18:05:34.926Z,3.63
2019-05-30T18:08:04.222Z,3.60
2019-05-30T18:10:34.641Z,3.17
2019-05-30T18:13:06.506Z,3.53
2019-05-30T18:15:36.935Z,3.50
2019-05-30T18:18:06.311Z,3.63
2019-05-30T18:20:47.599Z,3.40
2019-05-30T18:23:06.849Z,3.33
2019-05-30T18:25:36.260Z,3.40
2019-05-30T18:28:05.615Z,3.17
2019-05-30T18:30:42.833Z,3.53
2019-05-30T18:33:12.689Z,3.60
2019-05-30T18:35:43.130Z,3.30
2019-05-30T18:38:12.482Z,3.43
2019-05-30T18:40:41.882Z,3.57
2019-05-30T18:43:11.273Z,3.87
2019-05-30T18:45:42.634Z,3.73
2019-05-30T18:48:12.423Z,3.83
2019-05-30T18:50:41.787Z,4.30
2019-05-30T18:53:11.194Z,4.07
2019-05-30T18:55:41.025Z,3.93
2019-05-30T18:58:10.415Z,4.10
2019-05-30T19:00:39.748Z,3.90
2019-05-30T19:03:09.124Z,3.90
2019-05-30T19:05:38.549Z,4.37
2019-05-30T19:08:07.975Z,5.53
2019-05-30T19:10:37.285Z,4.50
2019-05-30T19:13:06.614Z,4.40
2019-05-30T19:15:35.958Z,4.30
2019-05-30T19:18:08.982Z,4.70
2019-05-30T19:20:36.846Z,4.63
2019-05-30T19:23:06.388Z,4.53
2019-05-30T19:25:37.876Z,4.57
2019-05-30T19:28:09.885Z,4.27
2019-05-30T19:30:41.213Z,4.00
2019-05-30T19:33:10.303Z,4.73
2019-05-30T19:35:39.698Z,4.20
2019-05-30T19:38:09.117Z,4.43
2019-05-30T19:40:40.196Z,4.60
2019-05-30T19:43:09.581Z,4.17
2019-05-30T19:45:39.380Z,3.90
2019-05-30T19:48:08.821Z,4.50
2019-05-30T19:50:38.850Z,4.30
2019-05-30T19:53:08.976Z,3.73
2019-05-30T19:55:39.564Z,4.10
2019-05-30T19:58:08.971Z,4.40
2019-05-30T20:00:54.415Z,4.00
2019-05-30T20:03:09.525Z,3.90
2019-05-30T20:05:39.025Z,3.87
2019-05-30T20:08:08.449Z,3.70
2019-05-30T20:10:37.771Z,3.83
2019-05-30T20:13:07.210Z,3.50
2019-05-30T20:15:37.707Z,3.63
2019-05-30T20:18:07.863Z,3.50
2019-05-30T20:20:50.698Z,3.67
2019-05-30T20:23:08.244Z,3.60
2019-05-30T20:25:41.887Z,4.03
2019-05-30T20:28:08.754Z,3.63
2019-05-30T20:30:39.230Z,3.60
2019-05-30T20:33:08.602Z,3.47
2019-05-30T20:35:40.087Z,3.33
2019-05-30T20:38:09.605Z,3.57
2019-05-30T20:40:38.971Z,3.97
2019-05-30T20:43:08.319Z,4.00
2019-05-30T20:45:42.777Z,3.87
2019-05-30T20:48:08.757Z,3.50
2019-05-30T20:50:39.013Z,3.97
2019-05-30T20:53:08.688Z,3.67
2019-05-30T20:55:38.355Z,3.30
2019-05-30T20:58:08.325Z,3.30
2019-05-30T21:00:40.128Z,3.40
2019-05-30T21:03:09.839Z,3.90
2019-05-30T21:05:40.389Z,3.97
2019-05-30T21:08:09.807Z,3.87
2019-05-30T21:10:41.296Z,3.90
2019-05-30T21:13:10.817Z,3.80
2019-05-30T21:15:41.833Z,4.33
2019-05-30T21:18:11.269Z,3.70
2019-05-30T21:20:40.577Z,3.83
2019-05-30T21:23:09.885Z,4.03
2019-05-30T21:25:39.193Z,4.33
2019-05-30T21:28:08.539Z,3.63
2019-05-30T21:30:38.864Z,3.60
2019-05-30T21:33:08.936Z,3.70
2019-05-30T21:35:39.741Z,4.27
2019-05-30T21:38:09.655Z,3.87
2019-05-30T21:40:40.329Z,3.73
2019-05-30T21:43:10.244Z,3.43
2019-05-30T21:45:40.396Z,3.57
2019-05-30T21:48:10.343Z,4.00
2019-05-30T21:50:43.042Z,4.37
2019-05-30T21:53:10.762Z,3.97
2019-05-30T21:55:40.210Z,4.07
2019-05-30T21:58:10.101Z,3.83
2019-05-30T22:01:21.573Z,4.60
2019-05-30T22:03:51.139Z,4.30
2019-05-30T22:06:20.925Z,4.40
2019-05-30T22:08:51.428Z,4.23
2019-05-30T22:11:21.824Z,4.83
2019-05-30T22:13:52.049Z,4.97
2019-05-30T22:16:21.941Z,5.60
2019-05-30T22:18:52.203Z,5.03
2019-05-30T22:21:22.693Z,5.20
2019-05-30T22:23:52.547Z,4.80
2019-05-30T22:26:22.681Z,4.30
2019-05-30T22:28:52.657Z,4.97
2019-05-30T22:31:22.697Z,4.70
2019-05-30T22:33:53.139Z,4.50
2019-05-30T22:36:23.222Z,4.20
2019-05-30T22:38:53.608Z,4.30
2019-05-30T22:41:22.919Z,4.27
2019-05-30T22:43:52.952Z,4.10
2019-05-30T22:46:22.990Z,4.40
2019-05-30T22:48:52.929Z,4.40
2019-05-30T22:51:22.867Z,3.93
2019-05-30T22:53:53.224Z,4.40
2019-05-30T22:56:23.357Z,4.50
2019-05-30T22:58:53.837Z,4.60
2019-05-30T23:01:23.954Z,4.63
2019-05-30T23:03:54.035Z,5.20
2019-05-30T23:06:23.945Z,4.60
2019-05-30T23:08:53.302Z,4.63
2019-05-30T23:11:22.649Z,4.30
2019-05-30T23:13:52.025Z,4.80
2019-05-30T23:16:22.025Z,5.00
2019-05-30T23:18:52.503Z,4.63
2019-05-30T23:21:22.485Z,4.40
2019-05-30T23:23:52.218Z,4.53
2019-05-30T23:26:22.890Z,4.63
2019-05-30T23:28:52.265Z,4.87
2019-05-30T23:31:21.550Z,5.07
2019-05-30T23:33:52.295Z,4.50
2019-05-30T23:36:21.945Z,4.70
2019-05-30T23:38:51.272Z,5.30
2019-05-30T23:41:20.673Z,4.83
2019-05-30T23:43:59.593Z,4.67
2019-05-30T23:46:21.201Z,4.63
2019-05-30T23:48:51.542Z,4.53
2019-05-30T23:51:21.565Z,5.17
2019-05-30T23:53:52.023Z,4.73
2019-05-30T23:56:21.958Z,5.00
2019-05-30T23:58:52.436Z,4.30
